sensor_id;sensor_type;location;lat;lon;timestamp;P1;durP1;ratioP1;P2;durP2;ratioP2
19505;SDS011;9894;50.852;-0.140;2022-11-15T00:01:41;0.20;;;0.20;;
19505;SDS011;9894;50.852;-0.140;2022-11-15T00:04:07;2.33;;;0.52;;
19505;SDS011;9894;50.852;-0.140;2022-11-15T00:06:33;0.20;;;0.20;;
19505;SDS011;9894;50.852;-0.140;2022-11-15T00:08:59;2.08;;;0.30;;
19505;SDS011;9894;50.852;-0.140;2022-11-15T00:11:25;9.23;;;1.05;;
19505;SDS011;9894;50.852;-0.140;2022-11-15T00:13:54;0.20;;;0.20;;
19505;SDS011;9894;50.852;-0.140;2022-11-15T00:16:21;0.93;;;0.73;;
19505;SDS011;9894;50.852;-0.140;2022-11-15T00:18:47;0.20;;;0.20;;
19505;SDS011;9894;50.852;-0.140;2022-11-15T00:21:13;0.30;;;0.30;;
19505;SDS011;9894;50.852;-0.140;2022-11-15T00:23:39;1.75;;;0.77;;
19505;SDS011;9894;50.852;-0.140;2022-11-15T00:26:06;0.22;;;0.22;;
19505;SDS011;9894;50.852;-0.140;2022-11-15T00:28:32;3.78;;;0.73;;
19505;SDS011;9894;50.852;-0.140;2022-11-15T00:31:02;0.43;;;0.40;;
19505;SDS011;9894;50.852;-0.140;2022-11-15T00:33:29;0.20;;;0.20;;
19505;SDS011;9894;50.852;-0.140;2022-11-15T00:38:31;10.43;;;1.88;;
19505;SDS011;9894;50.852;-0.140;2022-11-15T00:40:58;1.35;;;0.45;;
19505;SDS011;9894;50.852;-0.140;2022-11-15T00:43:24;0.45;;;0.28;;
19505;SDS011;9894;50.852;-0.140;2022-11-15T00:45:50;3.30;;;0.70;;
19505;SDS011;9894;50.852;-0.140;2022-11-15T00:48:16;0.30;;;0.30;;
19505;SDS011;9894;50.852;-0.140;2022-11-15T00:50:42;1.65;;;0.50;;
19505;SDS011;9894;50.852;-0.140;2022-11-15T00:53:11;0.20;;;0.20;;
19505;SDS011;9894;50.852;-0.140;2022-11-15T00:55:37;0.93;;;0.70;;
19505;SDS011;9894;50.852;-0.140;2022-11-15T00:58:04;0.52;;;0.40;;
19505;SDS011;9894;50.852;-0.140;2022-11-15T01:00:30;0.98;;;0.85;;
19505;SDS011;9894;50.852;-0.140;2022-11-15T01:02:56;1.17;;;0.75;;
19505;SDS011;9894;50.852;-0.140;2022-11-15T01:05:22;1.30;;;0.45;;
19505;SDS011;9894;50.852;-0.140;2022-11-15T01:07:52;3.63;;;0.40;;
19505;SDS011;9894;50.852;-0.140;2022-11-15T01:10:18;0.17;;;0.17;;
19505;SDS011;9894;50.852;-0.140;2022-11-15T01:12:44;0.10;;;0.10;;
19505;SDS011;9894;50.852;-0.140;2022-11-15T01:15:10;5.70;;;1.83;;
19505;SDS011;9894;50.852;-0.140;2022-11-15T01:17:36;3.85;;;0.82;;
19505;SDS011;9894;50.852;-0.140;2022-11-15T01:20:03;4.07;;;0.50;;
19505;SDS011;9894;50.852;-0.140;2022-11-15T01:22:29;0.45;;;0.30;;
19505;SDS011;9894;50.852;-0.140;2022-11-15T01:24:55;3.38;;;0.63;;
19505;SDS011;9894;50.852;-0.140;2022-11-15T01:27:21;11.65;;;1.13;;
19505;SDS011;9894;50.852;-0.140;2022-11-15T01:29:47;2.65;;;0.40;;
19505;SDS011;9894;50.852;-0.140;2022-11-15T01:32:13;2.45;;;0.60;;
19505;SDS011;9894;50.852;-0.140;2022-11-15T01:34:39;1.67;;;0.40;;
19505;SDS011;9894;50.852;-0.140;2022-11-15T01:37:05;2.05;;;0.63;;
19505;SDS011;9894;50.852;-0.140;2022-11-15T01:39:31;0.10;;;0.10;;
19505;SDS011;9894;50.852;-0.140;2022-11-15T01:41:57;3.80;;;1.65;;
19505;SDS011;9894;50.852;-0.140;2022-11-15T01:47:00;3.40;;;1.45;;
19505;SDS011;9894;50.852;-0.140;2022-11-15T01:49:27;4.70;;;1.00;;
19505;SDS011;9894;50.852;-0.140;2022-11-15T01:52:02;0.50;;;0.47;;
19505;SDS011;9894;50.852;-0.140;2022-11-15T01:54:29;8.38;;;0.98;;
19505;SDS011;9894;50.852;-0.140;2022-11-15T01:56:57;2.40;;;0.60;;
19505;SDS011;9894;50.852;-0.140;2022-11-15T01:59:25;0.10;;;0.10;;
19505;SDS011;9894;50.852;-0.140;2022-11-15T02:01:51;0.80;;;0.45;;
19505;SDS011;9894;50.852;-0.140;2022-11-15T02:07:15;0.90;;;0.52;;
19505;SDS011;9894;50.852;-0.140;2022-11-15T02:09:42;1.90;;;0.30;;
19505;SDS011;9894;50.852;-0.140;2022-11-15T02:12:09;15.27;;;1.33;;
19505;SDS011;9894;50.852;-0.140;2022-11-15T02:14:36;5.47;;;0.93;;
19505;SDS011;9894;50.852;-0.140;2022-11-15T02:40:12;1.60;;;0.30;;
19505;SDS011;9894;50.852;-0.140;2022-11-15T02:42:41;5.72;;;0.90;;
19505;SDS011;9894;50.852;-0.140;2022-11-15T02:45:35;0.93;;;0.47;;
19505;SDS011;9894;50.852;-0.140;2022-11-15T02:48:02;3.63;;;0.82;;
19505;SDS011;9894;50.852;-0.140;2022-11-15T02:50:29;3.58;;;1.27;;
19505;SDS011;9894;50.852;-0.140;2022-11-15T02:52:57;6.13;;;1.00;;
19505;SDS011;9894;50.852;-0.140;2022-11-15T02:57:57;2.25;;;0.52;;
19505;SDS011;9894;50.852;-0.140;2022-11-15T03:00:41;9.98;;;1.35;;
19505;SDS011;9894;50.852;-0.140;2022-11-15T03:10:59;2.60;;;0.75;;
19505;SDS011;9894;50.852;-0.140;2022-11-15T03:13:36;2.10;;;0.55;;
19505;SDS011;9894;50.852;-0.140;2022-11-15T03:16:05;0.63;;;0.45;;
19505;SDS011;9894;50.852;-0.140;2022-11-15T03:18:33;3.58;;;0.73;;
19505;SDS011;9894;50.852;-0.140;2022-11-15T03:21:02;4.97;;;0.98;;
19505;SDS011;9894;50.852;-0.140;2022-11-15T03:23:30;1.45;;;0.70;;
19505;SDS011;9894;50.852;-0.140;2022-11-15T03:25:57;0.77;;;0.43;;
19505;SDS011;9894;50.852;-0.140;2022-11-15T03:28:28;0.35;;;0.32;;
19505;SDS011;9894;50.852;-0.140;2022-11-15T03:30:55;0.40;;;0.40;;
19505;SDS011;9894;50.852;-0.140;2022-11-15T03:33:22;4.30;;;0.50;;
19505;SDS011;9894;50.852;-0.140;2022-11-15T03:35:48;4.95;;;1.50;;
19505;SDS011;9894;50.852;-0.140;2022-11-15T03:38:17;9.40;;;1.23;;
19505;SDS011;9894;50.852;-0.140;2022-11-15T03:40:47;1.35;;;0.47;;
19505;SDS011;9894;50.852;-0.140;2022-11-15T03:43:18;4.45;;;2.15;;
19505;SDS011;9894;50.852;-0.140;2022-11-15T03:45:51;1.98;;;0.50;;
19505;SDS011;9894;50.852;-0.140;2022-11-15T03:48:20;6.65;;;1.45;;
19505;SDS011;9894;50.852;-0.140;2022-11-15T03:50:47;2.30;;;0.80;;
19505;SDS011;9894;50.852;-0.140;2022-11-15T03:53:14;4.40;;;0.45;;
19505;SDS011;9894;50.852;-0.140;2022-11-15T03:55:40;9.13;;;2.67;;
19505;SDS011;9894;50.852;-0.140;2022-11-15T03:58:06;11.55;;;1.27;;
19505;SDS011;9894;50.852;-0.140;2022-11-15T04:00:32;7.40;;;0.90;;
19505;SDS011;9894;50.852;-0.140;2022-11-15T04:02:58;1.05;;;0.63;;
19505;SDS011;9894;50.852;-0.140;2022-11-15T04:05:24;3.83;;;1.38;;
19505;SDS011;9894;50.852;-0.140;2022-11-15T04:07:50;6.07;;;0.93;;
19505;SDS011;9894;50.852;-0.140;2022-11-15T04:10:17;1.80;;;0.63;;
19505;SDS011;9894;50.852;-0.140;2022-11-15T04:12:44;11.30;;;1.15;;
19505;SDS011;9894;50.852;-0.140;2022-11-15T04:15:22;4.47;;;1.45;;
19505;SDS011;9894;50.852;-0.140;2022-11-15T04:17:57;3.40;;;0.77;;
19505;SDS011;9894;50.852;-0.140;2022-11-15T04:20:27;1.35;;;0.98;;
19505;SDS011;9894;50.852;-0.140;2022-11-15T04:23:14;15.23;;;1.02;;
19505;SDS011;9894;50.852;-0.140;2022-11-15T04:25:59;2.45;;;0.90;;
19505;SDS011;9894;50.852;-0.140;2022-11-15T04:28:26;0.63;;;0.60;;
19505;SDS011;9894;50.852;-0.140;2022-11-15T04:30:52;8.10;;;0.55;;
19505;SDS011;9894;50.852;-0.140;2022-11-15T04:33:19;0.93;;;0.40;;
19505;SDS011;9894;50.852;-0.140;2022-11-15T04:35:45;2.92;;;0.65;;
19505;SDS011;9894;50.852;-0.140;2022-11-15T04:38:31;4.28;;;0.73;;
19505;SDS011;9894;50.852;-0.140;2022-11-15T04:40:57;0.43;;;0.30;;
19505;SDS011;9894;50.852;-0.140;2022-11-15T04:43:23;10.32;;;0.98;;
19505;SDS011;9894;50.852;-0.140;2022-11-15T04:45:49;0.43;;;0.43;;
19505;SDS011;9894;50.852;-0.140;2022-11-15T04:48:15;4.38;;;1.17;;
19505;SDS011;9894;50.852;-0.140;2022-11-15T04:50:41;8.25;;;1.35;;
19505;SDS011;9894;50.852;-0.140;2022-11-15T04:53:07;4.18;;;0.88;;
19505;SDS011;9894;50.852;-0.140;2022-11-15T04:55:33;3.47;;;1.13;;
19505;SDS011;9894;50.852;-0.140;2022-11-15T04:58:00;5.55;;;1.23;;
19505;SDS011;9894;50.852;-0.140;2022-11-15T05:00:27;6.47;;;1.48;;
19505;SDS011;9894;50.852;-0.140;2022-11-15T05:02:53;21.15;;;2.80;;
19505;SDS011;9894;50.852;-0.140;2022-11-15T05:05:38;11.88;;;1.85;;
19505;SDS011;9894;50.852;-0.140;2022-11-15T05:08:04;5.40;;;1.13;;
19505;SDS011;9894;50.852;-0.140;2022-11-15T05:10:30;5.50;;;1.08;;
19505;SDS011;9894;50.852;-0.140;2022-11-15T05:12:56;5.57;;;0.90;;
19505;SDS011;9894;50.852;-0.140;2022-11-15T05:15:22;11.40;;;1.75;;
19505;SDS011;9894;50.852;-0.140;2022-11-15T05:17:49;16.90;;;2.13;;
19505;SDS011;9894;50.852;-0.140;2022-11-15T05:20:15;12.98;;;2.65;;
19505;SDS011;9894;50.852;-0.140;2022-11-15T05:22:41;23.67;;;3.50;;
19505;SDS011;9894;50.852;-0.140;2022-11-15T05:25:07;13.55;;;2.58;;
19505;SDS011;9894;50.852;-0.140;2022-11-15T05:27:34;15.50;;;2.50;;
19505;SDS011;9894;50.852;-0.140;2022-11-15T05:30:00;14.50;;;2.42;;
19505;SDS011;9894;50.852;-0.140;2022-11-15T05:32:26;17.15;;;2.30;;
19505;SDS011;9894;50.852;-0.140;2022-11-15T05:34:54;14.25;;;2.35;;
19505;SDS011;9894;50.852;-0.140;2022-11-15T05:37:20;26.30;;;2.92;;
19505;SDS011;9894;50.852;-0.140;2022-11-15T05:39:46;19.98;;;2.67;;
19505;SDS011;9894;50.852;-0.140;2022-11-15T05:42:13;19.70;;;2.50;;
19505;SDS011;9894;50.852;-0.140;2022-11-15T05:44:40;14.27;;;2.28;;
19505;SDS011;9894;50.852;-0.140;2022-11-15T05:47:08;5.50;;;1.27;;
19505;SDS011;9894;50.852;-0.140;2022-11-15T05:49:34;8.10;;;2.03;;
19505;SDS011;9894;50.852;-0.140;2022-11-15T05:52:03;16.00;;;2.25;;
19505;SDS011;9894;50.852;-0.140;2022-11-15T05:54:31;16.52;;;2.60;;
19505;SDS011;9894;50.852;-0.140;2022-11-15T05:56:58;18.60;;;2.88;;
19505;SDS011;9894;50.852;-0.140;2022-11-15T05:59:25;20.00;;;2.63;;
19505;SDS011;9894;50.852;-0.140;2022-11-15T06:01:51;13.20;;;2.15;;
19505;SDS011;9894;50.852;-0.140;2022-11-15T06:04:17;11.30;;;2.58;;
19505;SDS011;9894;50.852;-0.140;2022-11-15T06:06:43;12.00;;;2.22;;
19505;SDS011;9894;50.852;-0.140;2022-11-15T06:09:09;17.17;;;1.95;;
19505;SDS011;9894;50.852;-0.140;2022-11-15T06:11:35;18.75;;;3.13;;
19505;SDS011;9894;50.852;-0.140;2022-11-15T06:14:01;11.15;;;1.90;;
19505;SDS011;9894;50.852;-0.140;2022-11-15T06:16:27;19.13;;;2.47;;
19505;SDS011;9894;50.852;-0.140;2022-11-15T06:18:53;18.23;;;2.92;;
19505;SDS011;9894;50.852;-0.140;2022-11-15T06:21:19;20.13;;;2.88;;
19505;SDS011;9894;50.852;-0.140;2022-11-15T06:23:46;19.65;;;1.80;;
19505;SDS011;9894;50.852;-0.140;2022-11-15T06:26:12;13.70;;;2.45;;
19505;SDS011;9894;50.852;-0.140;2022-11-15T06:28:38;12.23;;;2.50;;
19505;SDS011;9894;50.852;-0.140;2022-11-15T06:31:04;28.02;;;2.20;;
19505;SDS011;9894;50.852;-0.140;2022-11-15T06:33:31;8.68;;;1.17;;
19505;SDS011;9894;50.852;-0.140;2022-11-15T06:36:03;5.20;;;1.67;;
19505;SDS011;9894;50.852;-0.140;2022-11-15T06:38:30;7.22;;;1.95;;
19505;SDS011;9894;50.852;-0.140;2022-11-15T06:41:00;2.83;;;0.73;;
19505;SDS011;9894;50.852;-0.140;2022-11-15T06:43:27;11.70;;;2.03;;
19505;SDS011;9894;50.852;-0.140;2022-11-15T06:45:53;4.70;;;1.15;;
19505;SDS011;9894;50.852;-0.140;2022-11-15T06:48:19;1.15;;;0.55;;
19505;SDS011;9894;50.852;-0.140;2022-11-15T06:50:51;2.40;;;0.52;;
19505;SDS011;9894;50.852;-0.140;2022-11-15T06:53:18;6.70;;;1.67;;
19505;SDS011;9894;50.852;-0.140;2022-11-15T06:55:44;7.32;;;0.63;;
19505;SDS011;9894;50.852;-0.140;2022-11-15T06:58:10;0.30;;;0.30;;
19505;SDS011;9894;50.852;-0.140;2022-11-15T07:00:36;4.15;;;1.40;;
19505;SDS011;9894;50.852;-0.140;2022-11-15T07:03:03;16.25;;;2.33;;
19505;SDS011;9894;50.852;-0.140;2022-11-15T07:05:29;10.10;;;1.45;;
19505;SDS011;9894;50.852;-0.140;2022-11-15T07:07:56;14.68;;;1.08;;
19505;SDS011;9894;50.852;-0.140;2022-11-15T07:10:22;9.82;;;1.63;;
19505;SDS011;9894;50.852;-0.140;2022-11-15T07:12:52;9.18;;;1.58;;
19505;SDS011;9894;50.852;-0.140;2022-11-15T07:15:19;11.48;;;2.10;;
19505;SDS011;9894;50.852;-0.140;2022-11-15T07:17:45;14.57;;;2.92;;
19505;SDS011;9894;50.852;-0.140;2022-11-15T07:20:12;10.88;;;1.35;;
19505;SDS011;9894;50.852;-0.140;2022-11-15T07:22:38;6.72;;;1.02;;
19505;SDS011;9894;50.852;-0.140;2022-11-15T07:25:04;11.20;;;1.50;;
19505;SDS011;9894;50.852;-0.140;2022-11-15T07:27:31;13.40;;;1.45;;
19505;SDS011;9894;50.852;-0.140;2022-11-15T07:29:57;4.40;;;0.50;;
19505;SDS011;9894;50.852;-0.140;2022-11-15T07:32:23;23.08;;;2.00;;
19505;SDS011;9894;50.852;-0.140;2022-11-15T07:34:49;3.88;;;1.50;;
19505;SDS011;9894;50.852;-0.140;2022-11-15T07:37:15;5.75;;;0.98;;
19505;SDS011;9894;50.852;-0.140;2022-11-15T07:39:42;3.78;;;0.82;;
19505;SDS011;9894;50.852;-0.140;2022-11-15T07:42:08;4.55;;;1.63;;
19505;SDS011;9894;50.852;-0.140;2022-11-15T07:44:57;36.33;;;2.55;;
19505;SDS011;9894;50.852;-0.140;2022-11-15T07:47:23;3.53;;;1.17;;
19505;SDS011;9894;50.852;-0.140;2022-11-15T07:49:49;5.15;;;1.20;;
19505;SDS011;9894;50.852;-0.140;2022-11-15T07:52:16;7.78;;;1.83;;
19505;SDS011;9894;50.852;-0.140;2022-11-15T07:54:42;3.78;;;1.33;;
19505;SDS011;9894;50.852;-0.140;2022-11-15T07:57:08;20.23;;;3.08;;
19505;SDS011;9894;50.852;-0.140;2022-11-15T07:59:35;5.47;;;1.38;;
19505;SDS011;9894;50.852;-0.140;2022-11-15T08:02:01;4.65;;;1.17;;
19505;SDS011;9894;50.852;-0.140;2022-11-15T08:04:27;19.30;;;2.45;;
19505;SDS011;9894;50.852;-0.140;2022-11-15T08:06:53;3.92;;;0.88;;
19505;SDS011;9894;50.852;-0.140;2022-11-15T08:09:19;8.30;;;1.92;;
19505;SDS011;9894;50.852;-0.140;2022-11-15T08:11:45;4.85;;;1.38;;
19505;SDS011;9894;50.852;-0.140;2022-11-15T08:14:12;13.75;;;2.17;;
19505;SDS011;9894;50.852;-0.140;2022-11-15T08:16:38;14.00;;;1.42;;
19505;SDS011;9894;50.852;-0.140;2022-11-15T08:19:04;14.27;;;2.30;;
19505;SDS011;9894;50.852;-0.140;2022-11-15T08:21:30;8.18;;;1.42;;
19505;SDS011;9894;50.852;-0.140;2022-11-15T08:23:56;16.25;;;2.13;;
19505;SDS011;9894;50.852;-0.140;2022-11-15T08:26:22;36.70;;;2.80;;
19505;SDS011;9894;50.852;-0.140;2022-11-15T08:28:49;37.25;;;2.58;;
19505;SDS011;9894;50.852;-0.140;2022-11-15T08:31:16;5.28;;;0.82;;
19505;SDS011;9894;50.852;-0.140;2022-11-15T08:33:43;11.75;;;1.90;;
19505;SDS011;9894;50.852;-0.140;2022-11-15T08:36:14;11.30;;;2.15;;
19505;SDS011;9894;50.852;-0.140;2022-11-15T08:38:41;4.70;;;1.92;;
19505;SDS011;9894;50.852;-0.140;2022-11-15T08:41:09;5.80;;;1.13;;
19505;SDS011;9894;50.852;-0.140;2022-11-15T08:43:36;21.95;;;2.20;;
19505;SDS011;9894;50.852;-0.140;2022-11-15T08:46:02;9.30;;;2.30;;
19505;SDS011;9894;50.852;-0.140;2022-11-15T08:48:28;20.23;;;2.20;;
19505;SDS011;9894;50.852;-0.140;2022-11-15T08:50:55;1.17;;;0.57;;
19505;SDS011;9894;50.852;-0.140;2022-11-15T08:53:21;20.85;;;1.48;;
19505;SDS011;9894;50.852;-0.140;2022-11-15T08:55:47;7.07;;;2.08;;
19505;SDS011;9894;50.852;-0.140;2022-11-15T08:58:13;7.53;;;1.33;;
19505;SDS011;9894;50.852;-0.140;2022-11-15T09:00:40;9.10;;;2.05;;
19505;SDS011;9894;50.852;-0.140;2022-11-15T09:07:15;1.95;;;0.95;;
19505;SDS011;9894;50.852;-0.140;2022-11-15T09:09:41;10.35;;;2.25;;
19505;SDS011;9894;50.852;-0.140;2022-11-15T09:12:07;7.55;;;3.13;;
19505;SDS011;9894;50.852;-0.140;2022-11-15T09:14:33;12.07;;;1.77;;
19505;SDS011;9894;50.852;-0.140;2022-11-15T09:17:00;10.48;;;2.35;;
19505;SDS011;9894;50.852;-0.140;2022-11-15T09:19:26;4.50;;;1.70;;
19505;SDS011;9894;50.852;-0.140;2022-11-15T09:21:52;9.25;;;1.50;;
19505;SDS011;9894;50.852;-0.140;2022-11-15T09:24:19;18.05;;;2.70;;
19505;SDS011;9894;50.852;-0.140;2022-11-15T09:26:46;17.60;;;2.05;;
19505;SDS011;9894;50.852;-0.140;2022-11-15T09:29:12;4.80;;;1.58;;
19505;SDS011;9894;50.852;-0.140;2022-11-15T09:31:38;14.55;;;2.45;;
19505;SDS011;9894;50.852;-0.140;2022-11-15T09:34:04;23.17;;;2.15;;
19505;SDS011;9894;50.852;-0.140;2022-11-15T09:36:30;5.00;;;2.08;;
19505;SDS011;9894;50.852;-0.140;2022-11-15T09:38:59;17.38;;;2.17;;
19505;SDS011;9894;50.852;-0.140;2022-11-15T09:46:31;13.38;;;2.70;;
19505;SDS011;9894;50.852;-0.140;2022-11-15T09:49:00;18.88;;;3.42;;
19505;SDS011;9894;50.852;-0.140;2022-11-15T09:51:28;25.45;;;2.42;;
19505;SDS011;9894;50.852;-0.140;2022-11-15T09:54:01;10.85;;;1.67;;
19505;SDS011;9894;50.852;-0.140;2022-11-15T09:56:32;5.57;;;1.83;;
19505;SDS011;9894;50.852;-0.140;2022-11-15T10:01:51;48.22;;;3.67;;
19505;SDS011;9894;50.852;-0.140;2022-11-15T10:04:20;7.03;;;2.00;;
19505;SDS011;9894;50.852;-0.140;2022-11-15T10:06:49;17.88;;;1.88;;
19505;SDS011;9894;50.852;-0.140;2022-11-15T10:09:22;11.20;;;2.03;;
19505;SDS011;9894;50.852;-0.140;2022-11-15T10:11:54;10.02;;;1.63;;
19505;SDS011;9894;50.852;-0.140;2022-11-15T10:14:24;4.85;;;1.55;;
19505;SDS011;9894;50.852;-0.140;2022-11-15T10:24:25;12.90;;;2.08;;
19505;SDS011;9894;50.852;-0.140;2022-11-15T10:26:54;4.63;;;1.35;;
19505;SDS011;9894;50.852;-0.140;2022-11-15T10:29:20;14.85;;;1.98;;
19505;SDS011;9894;50.852;-0.140;2022-11-15T10:31:46;8.82;;;2.20;;
19505;SDS011;9894;50.852;-0.140;2022-11-15T10:34:14;11.57;;;1.95;;
19505;SDS011;9894;50.852;-0.140;2022-11-15T10:36:46;16.42;;;2.40;;
19505;SDS011;9894;50.852;-0.140;2022-11-15T10:39:19;10.50;;;2.25;;
19505;SDS011;9894;50.852;-0.140;2022-11-15T10:41:45;20.92;;;1.92;;
19505;SDS011;9894;50.852;-0.140;2022-11-15T10:44:19;6.82;;;1.63;;
19505;SDS011;9894;50.852;-0.140;2022-11-15T10:49:21;25.30;;;2.67;;
19505;SDS011;9894;50.852;-0.140;2022-11-15T10:57:04;9.27;;;1.92;;
19505;SDS011;9894;50.852;-0.140;2022-11-15T10:59:32;6.82;;;1.98;;
19505;SDS011;9894;50.852;-0.140;2022-11-15T11:01:59;12.07;;;2.97;;
19505;SDS011;9894;50.852;-0.140;2022-11-15T11:04:25;12.77;;;2.00;;
19505;SDS011;9894;50.852;-0.140;2022-11-15T11:06:56;8.63;;;2.00;;
19505;SDS011;9894;50.852;-0.140;2022-11-15T11:11:49;21.85;;;3.40;;
19505;SDS011;9894;50.852;-0.140;2022-11-15T11:14:22;19.90;;;2.95;;
19505;SDS011;9894;50.852;-0.140;2022-11-15T11:16:50;14.40;;;2.25;;
19505;SDS011;9894;50.852;-0.140;2022-11-15T11:32:15;14.18;;;2.72;;
19505;SDS011;9894;50.852;-0.140;2022-11-15T11:40:16;30.73;;;3.78;;
19505;SDS011;9894;50.852;-0.140;2022-11-15T11:45:18;6.78;;;3.30;;
19505;SDS011;9894;50.852;-0.140;2022-11-15T11:47:49;17.52;;;2.83;;
19505;SDS011;9894;50.852;-0.140;2022-11-15T11:50:20;8.32;;;2.40;;
19505;SDS011;9894;50.852;-0.140;2022-11-15T11:56:02;9.05;;;2.42;;
19505;SDS011;9894;50.852;-0.140;2022-11-15T12:00:31;13.90;;;4.10;;
19505;SDS011;9894;50.852;-0.140;2022-11-15T12:05:42;16.13;;;2.83;;
19505;SDS011;9894;50.852;-0.140;2022-11-15T12:08:15;11.35;;;2.53;;
19505;SDS011;9894;50.852;-0.140;2022-11-15T12:10:45;8.02;;;2.05;;
19505;SDS011;9894;50.852;-0.140;2022-11-15T12:13:18;16.35;;;2.85;;
19505;SDS011;9894;50.852;-0.140;2022-11-15T12:15:47;14.75;;;2.63;;
19505;SDS011;9894;50.852;-0.140;2022-11-15T12:18:16;6.57;;;1.58;;
19505;SDS011;9894;50.852;-0.140;2022-11-15T12:20:50;9.05;;;1.70;;
19505;SDS011;9894;50.852;-0.140;2022-11-15T12:23:23;16.98;;;3.92;;
19505;SDS011;9894;50.852;-0.140;2022-11-15T12:28:30;17.33;;;3.28;;
19505;SDS011;9894;50.852;-0.140;2022-11-15T12:31:02;43.70;;;2.70;;
19505;SDS011;9894;50.852;-0.140;2022-11-15T12:33:30;7.25;;;3.15;;
19505;SDS011;9894;50.852;-0.140;2022-11-15T12:35:58;6.68;;;1.33;;
19505;SDS011;9894;50.852;-0.140;2022-11-15T12:41:13;2.13;;;1.13;;
19505;SDS011;9894;50.852;-0.140;2022-11-15T12:43:40;9.93;;;2.65;;
19505;SDS011;9894;50.852;-0.140;2022-11-15T12:46:12;11.25;;;2.97;;
19505;SDS011;9894;50.852;-0.140;2022-11-15T12:51:05;8.25;;;3.00;;
19505;SDS011;9894;50.852;-0.140;2022-11-15T12:53:32;6.63;;;2.10;;
19505;SDS011;9894;50.852;-0.140;2022-11-15T13:01:09;10.30;;;1.63;;
19505;SDS011;9894;50.852;-0.140;2022-11-15T13:03:36;1.23;;;0.80;;
19505;SDS011;9894;50.852;-0.140;2022-11-15T13:06:41;1.65;;;0.65;;
19505;SDS011;9894;50.852;-0.140;2022-11-15T13:11:52;0.47;;;0.47;;
19505;SDS011;9894;50.852;-0.140;2022-11-15T13:19:48;3.88;;;0.73;;
19505;SDS011;9894;50.852;-0.140;2022-11-15T13:22:14;0.43;;;0.35;;
19505;SDS011;9894;50.852;-0.140;2022-11-15T13:25:00;2.28;;;0.63;;
19505;SDS011;9894;50.852;-0.140;2022-11-15T13:27:27;0.65;;;0.40;;
19505;SDS011;9894;50.852;-0.140;2022-11-15T13:29:53;11.20;;;2.10;;
19505;SDS011;9894;50.852;-0.140;2022-11-15T13:32:19;0.85;;;0.85;;
19505;SDS011;9894;50.852;-0.140;2022-11-15T13:34:46;3.90;;;0.65;;
19505;SDS011;9894;50.852;-0.140;2022-11-15T13:39:48;2.58;;;1.15;;
19505;SDS011;9894;50.852;-0.140;2022-11-15T13:42:18;9.85;;;1.02;;
19505;SDS011;9894;50.852;-0.140;2022-11-15T13:44:59;5.53;;;1.48;;
19505;SDS011;9894;50.852;-0.140;2022-11-15T13:47:26;0.65;;;0.40;;
19505;SDS011;9894;50.852;-0.140;2022-11-15T13:49:52;1.52;;;0.40;;
19505;SDS011;9894;50.852;-0.140;2022-11-15T13:52:18;5.53;;;0.90;;
19505;SDS011;9894;50.852;-0.140;2022-11-15T13:59:49;0.80;;;0.80;;
19505;SDS011;9894;50.852;-0.140;2022-11-15T14:02:20;0.55;;;0.47;;
19505;SDS011;9894;50.852;-0.140;2022-11-15T14:04:55;2.17;;;0.68;;
19505;SDS011;9894;50.852;-0.140;2022-11-15T14:07:22;2.00;;;0.50;;
19505;SDS011;9894;50.852;-0.140;2022-11-15T14:09:49;0.45;;;0.45;;
19505;SDS011;9894;50.852;-0.140;2022-11-15T14:12:22;1.30;;;0.70;;
19505;SDS011;9894;50.852;-0.140;2022-11-15T14:14:48;1.95;;;0.60;;
19505;SDS011;9894;50.852;-0.140;2022-11-15T14:17:32;0.95;;;0.52;;
19505;SDS011;9894;50.852;-0.140;2022-11-15T14:19:58;0.20;;;0.20;;
19505;SDS011;9894;50.852;-0.140;2022-11-15T14:22:28;2.28;;;0.60;;
19505;SDS011;9894;50.852;-0.140;2022-11-15T14:27:30;1.45;;;1.05;;
19505;SDS011;9894;50.852;-0.140;2022-11-15T14:29:56;0.60;;;0.60;;
19505;SDS011;9894;50.852;-0.140;2022-11-15T14:32:29;2.17;;;0.88;;
19505;SDS011;9894;50.852;-0.140;2022-11-15T14:34:57;0.98;;;0.95;;
19505;SDS011;9894;50.852;-0.140;2022-11-15T14:37:24;1.13;;;1.00;;
19505;SDS011;9894;50.852;-0.140;2022-11-15T14:39:51;1.45;;;0.73;;
19505;SDS011;9894;50.852;-0.140;2022-11-15T14:42:17;0.40;;;0.40;;
19505;SDS011;9894;50.852;-0.140;2022-11-15T14:44:44;2.50;;;1.02;;
19505;SDS011;9894;50.852;-0.140;2022-11-15T14:47:10;2.00;;;0.63;;
19505;SDS011;9894;50.852;-0.140;2022-11-15T14:49:36;0.98;;;0.98;;
19505;SDS011;9894;50.852;-0.140;2022-11-15T14:52:07;1.35;;;0.73;;
19505;SDS011;9894;50.852;-0.140;2022-11-15T14:54:33;0.60;;;0.60;;
19505;SDS011;9894;50.852;-0.140;2022-11-15T14:56:59;3.35;;;1.20;;
19505;SDS011;9894;50.852;-0.140;2022-11-15T14:59:25;3.25;;;1.05;;
19505;SDS011;9894;50.852;-0.140;2022-11-15T15:01:51;3.13;;;0.63;;
19505;SDS011;9894;50.852;-0.140;2022-11-15T15:04:17;2.25;;;0.93;;
19505;SDS011;9894;50.852;-0.140;2022-11-15T15:06:43;4.40;;;0.80;;
19505;SDS011;9894;50.852;-0.140;2022-11-15T15:09:09;3.40;;;1.20;;
19505;SDS011;9894;50.852;-0.140;2022-11-15T15:11:35;0.60;;;0.60;;
19505;SDS011;9894;50.852;-0.140;2022-11-15T15:14:03;2.15;;;1.13;;
19505;SDS011;9894;50.852;-0.140;2022-11-15T15:16:29;41.10;;;1.83;;
19505;SDS011;9894;50.852;-0.140;2022-11-15T15:18:55;0.63;;;0.63;;
19505;SDS011;9894;50.852;-0.140;2022-11-15T15:21:27;0.50;;;0.50;;
19505;SDS011;9894;50.852;-0.140;2022-11-15T15:23:54;3.95;;;0.95;;
19505;SDS011;9894;50.852;-0.140;2022-11-15T15:26:20;0.63;;;0.60;;
19505;SDS011;9894;50.852;-0.140;2022-11-15T15:28:47;1.40;;;1.00;;
19505;SDS011;9894;50.852;-0.140;2022-11-15T15:31:13;1.10;;;0.98;;
19505;SDS011;9894;50.852;-0.140;2022-11-15T15:33:40;1.40;;;0.65;;
19505;SDS011;9894;50.852;-0.140;2022-11-15T15:36:12;1.65;;;0.80;;
19505;SDS011;9894;50.852;-0.140;2022-11-15T15:38:39;0.40;;;0.40;;
19505;SDS011;9894;50.852;-0.140;2022-11-15T15:41:10;0.50;;;0.40;;
19505;SDS011;9894;50.852;-0.140;2022-11-15T15:43:36;4.13;;;0.70;;
19505;SDS011;9894;50.852;-0.140;2022-11-15T15:46:02;0.95;;;0.95;;
19505;SDS011;9894;50.852;-0.140;2022-11-15T15:48:28;0.30;;;0.30;;
19505;SDS011;9894;50.852;-0.140;2022-11-15T15:50:54;1.25;;;0.60;;
19505;SDS011;9894;50.852;-0.140;2022-11-15T15:53:20;0.30;;;0.30;;
19505;SDS011;9894;50.852;-0.140;2022-11-15T15:55:46;1.75;;;0.93;;
19505;SDS011;9894;50.852;-0.140;2022-11-15T15:58:12;0.50;;;0.50;;
19505;SDS011;9894;50.852;-0.140;2022-11-15T16:00:39;2.95;;;1.35;;
19505;SDS011;9894;50.852;-0.140;2022-11-15T16:03:05;0.98;;;0.60;;
19505;SDS011;9894;50.852;-0.140;2022-11-15T16:05:31;0.50;;;0.50;;
19505;SDS011;9894;50.852;-0.140;2022-11-15T16:07:57;5.53;;;0.63;;
19505;SDS011;9894;50.852;-0.140;2022-11-15T16:10:25;0.35;;;0.35;;
19505;SDS011;9894;50.852;-0.140;2022-11-15T16:12:52;12.55;;;1.08;;
19505;SDS011;9894;50.852;-0.140;2022-11-15T16:15:18;0.65;;;0.65;;
19505;SDS011;9894;50.852;-0.140;2022-11-15T16:17:55;1.08;;;0.68;;
19505;SDS011;9894;50.852;-0.140;2022-11-15T16:20:32;0.40;;;0.40;;
19505;SDS011;9894;50.852;-0.140;2022-11-15T16:22:59;8.13;;;0.75;;
19505;SDS011;9894;50.852;-0.140;2022-11-15T16:25:25;5.05;;;2.53;;
19505;SDS011;9894;50.852;-0.140;2022-11-15T16:27:52;1.17;;;0.43;;
19505;SDS011;9894;50.852;-0.140;2022-11-15T16:30:19;0.30;;;0.30;;
19505;SDS011;9894;50.852;-0.140;2022-11-15T16:32:45;0.90;;;0.63;;
19505;SDS011;9894;50.852;-0.140;2022-11-15T16:35:12;0.30;;;0.30;;
19505;SDS011;9894;50.852;-0.140;2022-11-15T16:37:38;0.30;;;0.30;;
19505;SDS011;9894;50.852;-0.140;2022-11-15T16:40:14;0.77;;;0.40;;
19505;SDS011;9894;50.852;-0.140;2022-11-15T16:42:42;1.70;;;0.93;;
19505;SDS011;9894;50.852;-0.140;2022-11-15T16:45:10;2.22;;;0.43;;
19505;SDS011;9894;50.852;-0.140;2022-11-15T16:47:37;14.45;;;0.85;;
19505;SDS011;9894;50.852;-0.140;2022-11-15T16:50:03;5.07;;;0.80;;
19505;SDS011;9894;50.852;-0.140;2022-11-15T16:52:29;4.30;;;0.80;;
19505;SDS011;9894;50.852;-0.140;2022-11-15T16:54:55;1.67;;;1.58;;
19505;SDS011;9894;50.852;-0.140;2022-11-15T16:57:21;4.45;;;2.13;;
19505;SDS011;9894;50.852;-0.140;2022-11-15T16:59:48;1.00;;;1.00;;